This is the latest recevied weather packets stored in our database for station/object KB4KY. If no packets are shown the sender has not sent any weather packets the latest 1 day(s).
| Time | Temp. | Humidity | Pressure | Rain* | Wind** | Luminosity | Snow |
|---|---|---|---|---|---|---|---|
| 1778002948 | 22.22° C | 64% | 1008.8 hPa | 0 mm | 0 m/s | - | - |
| 1778002647 | 21.67° C | 62% | 1008.7 hPa | 0 mm | 1.79 m/s, 241° | - | - |
| 1778002348 | 21.67° C | 66% | 1008.8 hPa | 0 mm | 3.58 m/s, 185° | - | - |
| 1778002047 | 22.22° C | 61% | 1008.9 hPa | 0 mm | 2.24 m/s, 137° | - | - |
| 1778001745 | 22.22° C | 63% | 1009.1 hPa | 0 mm | 0.45 m/s, 274° | - | - |
| 1778001447 | 21.67° C | 63% | 1009.1 hPa | 0 mm | 0 m/s | - | - |
| 1778001147 | 21.67° C | 64% | 1009.2 hPa | 0 mm | 2.68 m/s, 189° | - | - |
| 1778000845 | 21.67° C | 63% | 1009.2 hPa | 0 mm | 1.34 m/s, 174° | - | - |
| 1778000545 | 21.67° C | 66% | 1009.3 hPa | 0 mm | 1.79 m/s, 236° | - | - |
| 1778000245 | 21.11° C | 63% | 1009.3 hPa | 0 mm | 0.89 m/s, 241° | - | - |
| 1777999944 | 21.11° C | 65% | 1009.4 hPa | 0 mm | 1.79 m/s, 229° | - | - |
| 1777999643 | 21.11° C | 63% | 1009.5 hPa | 0 mm | 0 m/s | - | - |
| 1777999343 | 21.67° C | 66% | 1009.6 hPa | 0 mm | 0.89 m/s, 222° | - | - |
| 1777999043 | 21.67° C | 61% | 1009.6 hPa | 0 mm | 0.45 m/s, 250° | - | - |
| 1777998744 | 21.67° C | 64% | 1009.7 hPa | 0 mm | 1.79 m/s, 230° | - | - |
| 1777998442 | 21.67° C | 66% | 1009.8 hPa | 0 mm | 2.68 m/s, 149° | - | - |
| 1777998143 | 21.67° C | 65% | 1009.8 hPa | 0 mm | 0 m/s | - | - |
| 1777998080 | 21.11° C | 66% | 1009.7 hPa | 0 mm | 1.34 m/s, 227° | - | - |
| 1777997842 | 21.67° C | 66% | 1009.8 hPa | 0 mm | 0.45 m/s, 234° | - | - |
| 1777997541 | 21.11° C | 66% | 1009.7 hPa | 0 mm | 1.34 m/s, 227° | - | - |
| 1777997241 | 21.11° C | 65% | 1009.8 hPa | 0 mm | 0.45 m/s, 234° | - | - |
| 1777996946 | 21.11° C | 62% | 1009.8 hPa | 0 mm | 2.24 m/s, 158° | - | - |
| 1777996640 | 21.11° C | 65% | 1009.9 hPa | 0 mm | 0.45 m/s, 217° | - | - |
| 1777996424 | 21.11° C | 64% | 1009.8 hPa | 0 mm | 1.34 m/s, 225° | - | - |
| 1777996342 | 21.11° C | 63% | 1009.8 hPa | 0 mm | 0.89 m/s, 202° | - | - |
* Rain latest hour (hover to see other rain measurements)
** Current wind speed in m/s (hover to see current wind gust speed)